createdAt,value
2018-12-25T00:00:44.152Z,14.20
2018-12-25T00:03:13.451Z,16.85
2018-12-25T00:05:42.728Z,14.50
2018-12-25T00:08:12.036Z,15.32
2018-12-25T00:10:41.316Z,13.60
2018-12-25T00:13:10.610Z,12.88
2018-12-25T00:15:39.863Z,14.60
2018-12-25T00:18:09.158Z,22.27
2018-12-25T00:20:38.420Z,11.73
2018-12-25T00:23:07.724Z,15.68
2018-12-25T00:25:36.998Z,13.07
2018-12-25T00:28:06.294Z,13.35
2018-12-25T00:30:35.553Z,14.60
2018-12-25T00:33:04.832Z,12.47
2018-12-25T00:35:34.144Z,16.57
2018-12-25T00:38:03.426Z,14.93
2018-12-25T00:40:32.739Z,14.15
2018-12-25T00:43:02.054Z,14.40
2018-12-25T00:45:31.324Z,10.80
2018-12-25T00:48:01.046Z,16.73
2018-12-25T00:50:30.300Z,24.32
2018-12-25T00:52:59.596Z,17.67
2018-12-25T00:55:28.888Z,11.03
2018-12-25T00:57:58.160Z,12.07
2018-12-25T01:00:27.479Z,10.80
2018-12-25T01:02:56.735Z,18.02
2018-12-25T01:05:26.022Z,14.35
2018-12-25T01:07:55.337Z,17.17
2018-12-25T01:10:24.603Z,13.78
2018-12-25T01:12:53.886Z,17.00
2018-12-25T01:15:23.186Z,23.57
2018-12-25T01:17:52.456Z,12.00
2018-12-25T01:20:21.727Z,18.07
2018-12-25T01:22:51.038Z,18.57
2018-12-25T01:25:20.318Z,13.22
2018-12-25T01:27:49.714Z,15.25
2018-12-25T01:30:19.001Z,12.53
2018-12-25T01:32:48.277Z,13.70
2018-12-25T01:35:17.561Z,16.30
2018-12-25T01:37:46.824Z,16.05
2018-12-25T01:40:16.117Z,14.57
2018-12-25T01:42:45.388Z,13.75
2018-12-25T01:45:14.661Z,13.83
2018-12-25T01:47:43.940Z,15.80
2018-12-25T01:50:13.188Z,13.05
2018-12-25T01:52:42.482Z,13.18
2018-12-25T01:55:11.791Z,13.00
2018-12-25T01:57:41.069Z,22.02
2018-12-25T02:00:10.331Z,12.88
2018-12-25T02:02:40.533Z,11.67
2018-12-25T02:05:09.802Z,13.07
2018-12-25T02:07:39.093Z,11.43
2018-12-25T02:10:08.359Z,10.45
2018-12-25T02:12:37.615Z,11.20
2018-12-25T02:15:06.921Z,11.25
2018-12-25T02:17:36.198Z,12.18
2018-12-25T02:20:05.543Z,11.63
2018-12-25T02:22:34.838Z,10.32
2018-12-25T02:25:04.116Z,13.08
2018-12-25T02:27:33.378Z,19.83
2018-12-25T02:30:02.696Z,14.83
2018-12-25T02:32:32.038Z,10.78
2018-12-25T02:35:01.323Z,13.03
2018-12-25T02:37:30.618Z,16.63
2018-12-25T02:39:59.988Z,13.90
2018-12-25T02:42:29.253Z,16.95
2018-12-25T02:44:58.566Z,13.43
2018-12-25T02:47:28.170Z,14.45
2018-12-25T02:49:57.457Z,17.60
2018-12-25T02:52:26.744Z,14.47
2018-12-25T02:54:56.054Z,13.20
2018-12-25T02:57:25.329Z,11.93
2018-12-25T02:59:54.677Z,9.30
2018-12-25T03:02:24.045Z,13.78
2018-12-25T03:04:53.308Z,10.55
2018-12-25T03:07:22.749Z,12.93
2018-12-25T03:09:52.062Z,11.85
2018-12-25T03:12:21.324Z,14.65
2018-12-25T03:14:50.593Z,11.37
2018-12-25T03:17:19.893Z,12.03
2018-12-25T03:19:49.156Z,11.87
2018-12-25T03:22:18.479Z,11.85
2018-12-25T03:24:47.760Z,10.18
2018-12-25T03:27:17.040Z,8.68
2018-12-25T03:29:46.330Z,13.90
2018-12-25T03:32:15.638Z,12.20
2018-12-25T03:34:44.980Z,14.30
2018-12-25T03:37:14.244Z,7.28
2018-12-25T03:39:43.555Z,9.00
2018-12-25T03:42:12.827Z,11.25
2018-12-25T03:44:42.114Z,10.13
2018-12-25T03:47:11.556Z,9.58
2018-12-25T03:49:40.877Z,13.38
2018-12-25T03:52:10.138Z,10.03
2018-12-25T03:54:39.384Z,11.57
2018-12-25T03:57:08.693Z,9.98
2018-12-25T03:59:37.997Z,8.07
2018-12-25T04:02:07.282Z,9.23
2018-12-25T04:04:36.540Z,9.63
2018-12-25T04:07:05.810Z,11.50
2018-12-25T04:09:35.089Z,12.83
2018-12-25T04:12:04.396Z,12.13
2018-12-25T04:14:33.649Z,8.23
2018-12-25T04:17:02.905Z,9.40
2018-12-25T04:19:32.201Z,9.88
2018-12-25T04:22:01.543Z,8.65
2018-12-25T04:24:30.826Z,10.10
2018-12-25T04:27:00.159Z,10.48
2018-12-25T04:29:29.436Z,8.73
2018-12-25T04:31:58.704Z,7.30
2018-12-25T04:34:28.081Z,7.53
2018-12-25T04:36:57.450Z,10.63
2018-12-25T04:39:26.733Z,20.72
2018-12-25T04:41:56.005Z,7.13
2018-12-25T04:44:25.277Z,9.13
2018-12-25T04:46:54.564Z,10.10
2018-12-25T04:49:23.832Z,7.43
2018-12-25T04:51:53.096Z,8.27
2018-12-25T04:54:22.444Z,8.53
2018-12-25T04:56:51.698Z,8.50
2018-12-25T04:59:20.975Z,8.53
2018-12-25T05:01:50.253Z,7.70
2018-12-25T05:04:19.510Z,6.50
2018-12-25T05:06:48.789Z,8.80
2018-12-25T05:09:18.060Z,7.40
2018-12-25T05:11:47.326Z,8.50
2018-12-25T05:14:16.625Z,6.33
2018-12-25T05:16:45.912Z,6.30
2018-12-25T05:19:15.160Z,7.17
2018-12-25T05:21:44.447Z,6.77
2018-12-25T05:24:13.735Z,6.90
2018-12-25T05:26:43.008Z,9.37
2018-12-25T05:29:12.298Z,7.27
2018-12-25T05:31:41.569Z,8.05
2018-12-25T05:34:10.876Z,10.17
2018-12-25T05:36:40.315Z,19.50
2018-12-25T05:39:09.601Z,6.00
2018-12-25T05:41:38.889Z,11.00
2018-12-25T05:44:08.155Z,10.10
2018-12-25T05:46:37.422Z,6.23
2018-12-25T05:49:06.688Z,6.50
2018-12-25T05:51:35.949Z,6.33
2018-12-25T05:54:05.225Z,6.83
2018-12-25T05:56:34.517Z,7.80
2018-12-25T05:59:03.805Z,6.90
2018-12-25T06:01:33.086Z,10.20
2018-12-25T06:04:02.349Z,6.27
2018-12-25T06:06:31.637Z,9.13
2018-12-25T06:09:00.894Z,6.10
2018-12-25T06:11:30.164Z,7.80
2018-12-25T06:13:59.457Z,9.43
2018-12-25T06:16:28.741Z,12.73
2018-12-25T06:18:57.985Z,7.13
2018-12-25T06:21:27.282Z,7.10
2018-12-25T06:23:56.564Z,10.67
2018-12-25T06:26:25.820Z,9.67
2018-12-25T06:28:55.108Z,8.03
2018-12-25T06:31:24.368Z,12.33
2018-12-25T06:33:53.653Z,8.70
2018-12-25T06:36:22.946Z,7.97
2018-12-25T06:38:52.195Z,6.97
2018-12-25T06:41:21.482Z,11.90
2018-12-25T06:43:50.747Z,5.50
2018-12-25T06:46:20.024Z,6.97
2018-12-25T06:48:49.340Z,7.37
2018-12-25T06:51:18.868Z,7.30
2018-12-25T06:53:48.149Z,6.80
2018-12-25T06:56:17.413Z,6.07
2018-12-25T06:58:46.681Z,6.80
2018-12-25T07:01:16.010Z,9.23
2018-12-25T07:03:45.281Z,7.43
2018-12-25T07:06:14.538Z,12.13
2018-12-25T07:08:43.845Z,13.50
2018-12-25T07:11:13.131Z,7.17
2018-12-25T07:13:42.384Z,8.87
2018-12-25T07:16:11.689Z,10.00
2018-12-25T07:18:40.957Z,9.67
2018-12-25T07:21:12.295Z,10.07
2018-12-25T07:23:41.275Z,10.23
2018-12-25T07:26:10.571Z,10.70
2018-12-25T07:28:39.828Z,9.67
2018-12-25T07:31:09.122Z,12.73
2018-12-25T07:33:38.473Z,8.27
2018-12-25T07:36:09.474Z,7.37
2018-12-25T07:38:38.904Z,9.80
2018-12-25T07:41:08.173Z,9.60
2018-12-25T07:43:37.450Z,6.67
2018-12-25T07:46:06.737Z,7.90
2018-12-25T07:48:36.006Z,9.67
2018-12-25T07:51:05.276Z,7.30
2018-12-25T07:53:34.579Z,10.43
2018-12-25T07:56:03.860Z,14.40
2018-12-25T07:58:33.170Z,10.83
2018-12-25T08:01:02.465Z,8.00
2018-12-25T08:03:31.757Z,13.70
2018-12-25T08:06:01.012Z,8.77
2018-12-25T08:08:30.299Z,8.87
2018-12-25T08:10:59.609Z,10.40
2018-12-25T08:13:28.881Z,9.40
2018-12-25T08:15:58.157Z,10.07
2018-12-25T08:18:27.519Z,11.57
2018-12-25T08:20:56.796Z,9.37
2018-12-25T08:23:26.069Z,9.07
2018-12-25T08:25:55.352Z,11.00
2018-12-25T08:28:24.612Z,11.90
2018-12-25T08:30:53.884Z,14.67
2018-12-25T08:33:23.187Z,9.27
2018-12-25T08:35:52.501Z,13.80
2018-12-25T08:38:21.779Z,8.70
2018-12-25T08:40:51.073Z,13.20
2018-12-25T08:43:20.341Z,19.33
2018-12-25T08:45:49.601Z,21.73
2018-12-25T08:48:18.904Z,12.33
2018-12-25T08:50:48.199Z,13.53
2018-12-25T08:53:17.467Z,10.80
2018-12-25T08:55:47.398Z,15.33
2018-12-25T08:58:16.835Z,14.20
2018-12-25T09:00:46.212Z,11.90
2018-12-25T09:03:15.528Z,16.00
2018-12-25T09:05:44.779Z,12.43
2018-12-25T09:08:14.076Z,10.63
2018-12-25T09:10:43.360Z,13.30
2018-12-25T09:13:12.690Z,20.50
2018-12-25T09:15:42.037Z,14.63
2018-12-25T09:18:11.349Z,13.80
2018-12-25T09:20:40.625Z,11.37
2018-12-25T09:23:09.930Z,14.87
2018-12-25T09:25:39.188Z,15.47
2018-12-25T09:28:08.481Z,13.73
2018-12-25T09:30:37.760Z,13.23
2018-12-25T09:33:07.068Z,13.80
2018-12-25T09:35:36.369Z,13.93
2018-12-25T09:38:05.693Z,22.53
2018-12-25T09:40:34.976Z,15.80
2018-12-25T09:43:04.257Z,15.50
2018-12-25T09:45:33.525Z,14.80
2018-12-25T09:48:02.845Z,18.10
2018-12-25T09:50:32.104Z,14.63
2018-12-25T09:53:01.384Z,12.50
2018-12-25T09:55:30.794Z,16.53
2018-12-25T09:58:00.054Z,16.83
2018-12-25T10:00:29.332Z,16.40
2018-12-25T10:02:58.654Z,16.57
2018-12-25T10:05:27.960Z,16.10
2018-12-25T10:07:57.256Z,12.03
2018-12-25T10:10:26.931Z,14.70
2018-12-25T10:12:56.210Z,16.17
2018-12-25T10:15:25.512Z,15.70
2018-12-25T10:17:54.798Z,18.33
2018-12-25T10:20:24.073Z,22.37
2018-12-25T10:22:53.364Z,15.23
2018-12-25T10:25:22.655Z,18.23
2018-12-25T10:27:51.937Z,16.80
2018-12-25T10:30:21.226Z,16.03
2018-12-25T10:32:50.508Z,17.47
2018-12-25T10:35:19.822Z,12.93
2018-12-25T10:37:49.093Z,20.80
2018-12-25T10:40:18.383Z,11.07
2018-12-25T10:42:47.666Z,16.40
2018-12-25T10:45:17.006Z,14.10
2018-12-25T10:47:46.292Z,14.27
2018-12-25T10:50:15.573Z,14.30
2018-12-25T10:52:44.892Z,20.90
2018-12-25T10:55:14.159Z,12.57
2018-12-25T10:57:43.419Z,14.17
2018-12-25T11:00:14.328Z,12.73
2018-12-25T11:02:43.617Z,13.03
2018-12-25T11:05:12.953Z,12.93
2018-12-25T11:07:42.202Z,22.33
2018-12-25T11:10:11.466Z,16.30
2018-12-25T11:12:40.764Z,20.80
2018-12-25T11:15:10.041Z,13.33
2018-12-25T11:17:39.320Z,28.00
2018-12-25T11:20:11.607Z,17.87
2018-12-25T11:22:39.614Z,16.50
2018-12-25T11:25:08.912Z,17.87
2018-12-25T11:27:38.181Z,19.93
2018-12-25T11:30:07.692Z,22.10
2018-12-25T11:32:36.982Z,27.53
2018-12-25T11:35:06.535Z,13.03
2018-12-25T11:37:35.825Z,21.60
2018-12-25T11:40:05.328Z,15.73
2018-12-25T11:42:34.617Z,17.77
2018-12-25T11:45:03.998Z,15.17
2018-12-25T11:47:33.269Z,16.93
2018-12-25T11:50:02.542Z,20.80
2018-12-25T11:52:31.840Z,19.80
2018-12-25T11:55:01.098Z,17.30
2018-12-25T11:57:30.392Z,21.43
2018-12-25T11:59:59.676Z,24.10
2018-12-25T12:02:29.053Z,18.83
2018-12-25T12:04:58.346Z,16.73
2018-12-25T12:07:27.609Z,16.80
2018-12-25T12:09:56.929Z,24.03
2018-12-25T12:12:26.212Z,19.90
2018-12-25T12:14:55.512Z,19.97
2018-12-25T12:17:24.797Z,22.33
2018-12-25T12:19:54.081Z,16.47
2018-12-25T12:22:23.389Z,21.73
2018-12-25T12:24:52.653Z,21.47
2018-12-25T12:27:21.920Z,16.53
2018-12-25T12:29:51.200Z,24.50
2018-12-25T12:32:20.479Z,23.10
2018-12-25T12:34:49.776Z,20.30
2018-12-25T12:37:19.056Z,18.23
2018-12-25T12:39:48.363Z,21.93
2018-12-25T12:42:17.631Z,19.77
2018-12-25T12:44:46.911Z,24.33
2018-12-25T12:47:16.196Z,23.53
2018-12-25T12:49:45.459Z,19.10
2018-12-25T12:52:14.757Z,22.30
2018-12-25T12:54:44.019Z,21.23
2018-12-25T12:57:13.282Z,17.77
2018-12-25T12:59:42.706Z,21.90
2018-12-25T13:02:12.012Z,29.30
2018-12-25T13:04:41.312Z,28.43
2018-12-25T13:07:10.590Z,23.47
2018-12-25T13:09:39.892Z,21.70
2018-12-25T13:12:09.152Z,22.93
2018-12-25T13:14:38.406Z,17.20
2018-12-25T13:17:07.690Z,21.63
2018-12-25T13:19:36.953Z,16.80
2018-12-25T13:22:06.244Z,25.23
2018-12-25T13:24:35.525Z,20.10
2018-12-25T13:27:04.803Z,16.87
2018-12-25T13:29:34.195Z,17.43
2018-12-25T13:32:03.457Z,19.03
2018-12-25T13:34:32.748Z,15.67
2018-12-25T13:37:02.027Z,18.80
2018-12-25T13:39:31.300Z,18.37
2018-12-25T13:42:00.609Z,16.20
2018-12-25T13:44:29.883Z,17.10
2018-12-25T13:46:59.260Z,17.53
2018-12-25T13:49:28.545Z,15.70
2018-12-25T13:51:57.821Z,17.60
2018-12-25T13:54:27.106Z,16.33
2018-12-25T13:56:56.369Z,15.77
2018-12-25T13:59:25.648Z,28.80
2018-12-25T14:01:54.916Z,17.80
2018-12-25T14:04:24.189Z,12.73
2018-12-25T14:06:53.496Z,14.60
2018-12-25T14:09:22.776Z,17.00
2018-12-25T14:11:52.065Z,15.60
2018-12-25T14:14:21.363Z,14.73
2018-12-25T14:16:50.661Z,15.13
2018-12-25T14:19:19.939Z,14.23
2018-12-25T14:21:49.208Z,17.03
2018-12-25T14:24:18.504Z,14.83
2018-12-25T14:26:47.774Z,15.47
2018-12-25T14:29:17.077Z,14.27
2018-12-25T14:31:46.376Z,14.80
2018-12-25T14:34:16.592Z,18.00
2018-12-25T14:36:45.999Z,15.30
2018-12-25T14:39:15.588Z,14.80
2018-12-25T14:41:44.880Z,16.20
2018-12-25T14:44:14.154Z,15.07
2018-12-25T14:46:43.437Z,15.17
2018-12-25T14:49:12.749Z,14.20
2018-12-25T14:51:42.032Z,24.27
2018-12-25T14:54:11.305Z,15.67
2018-12-25T14:56:40.612Z,18.70
2018-12-25T14:59:09.876Z,18.60
2018-12-25T15:01:39.229Z,19.03
2018-12-25T15:04:08.538Z,19.13
2018-12-25T15:06:37.836Z,20.93
2018-12-25T15:09:07.664Z,18.90
2018-12-25T15:11:36.961Z,17.50
2018-12-25T15:14:06.236Z,15.30
2018-12-25T15:16:35.564Z,19.93
2018-12-25T15:19:04.837Z,19.73
2018-12-25T15:21:34.143Z,22.50
2018-12-25T15:24:03.405Z,20.13
2018-12-25T15:26:32.720Z,22.57
2018-12-25T15:29:02.022Z,21.20
2018-12-25T15:31:31.307Z,23.33
2018-12-25T15:34:00.631Z,18.97
2018-12-25T15:36:30.014Z,28.63
2018-12-25T15:38:59.314Z,19.60
2018-12-25T15:41:28.567Z,23.87
2018-12-25T15:43:57.865Z,26.90
2018-12-25T15:46:27.165Z,18.63
2018-12-25T15:48:56.593Z,21.90
2018-12-25T15:51:26.374Z,27.90
2018-12-25T15:53:55.717Z,20.60
2018-12-25T15:56:25.001Z,17.03
2018-12-25T15:58:54.302Z,19.20
2018-12-25T16:01:23.590Z,18.80
2018-12-25T16:03:52.878Z,20.23
2018-12-25T16:06:22.175Z,19.80
2018-12-25T16:08:52.684Z,19.63
2018-12-25T16:11:21.976Z,18.27
2018-12-25T16:13:51.245Z,23.70
2018-12-25T16:16:20.526Z,17.43
2018-12-25T16:18:49.830Z,24.07
2018-12-25T16:21:19.110Z,15.67
2018-12-25T16:23:48.385Z,24.80
2018-12-25T16:26:17.669Z,20.37
2018-12-25T16:28:46.967Z,20.57
2018-12-25T16:31:16.246Z,21.27
2018-12-25T16:33:45.529Z,22.00
2018-12-25T16:36:14.823Z,29.13
2018-12-25T16:38:44.198Z,22.60
2018-12-25T16:41:13.555Z,18.87
2018-12-25T16:43:42.957Z,19.20
2018-12-25T16:46:12.243Z,19.80
2018-12-25T16:48:41.549Z,24.30
2018-12-25T16:51:10.817Z,21.70
2018-12-25T16:53:41.884Z,22.37
2018-12-25T16:56:11.130Z,21.57
2018-12-25T16:58:40.392Z,21.50
2018-12-25T17:01:09.679Z,32.90
2018-12-25T17:03:38.958Z,23.13
2018-12-25T17:06:08.229Z,19.63
2018-12-25T17:08:37.548Z,24.00
2018-12-25T17:11:06.808Z,20.20
2018-12-25T17:13:36.090Z,27.60
2018-12-25T17:16:06.255Z,40.57
2018-12-25T17:18:35.561Z,23.00
2018-12-25T17:21:04.839Z,26.60
2018-12-25T17:23:34.144Z,22.57
2018-12-25T17:26:03.418Z,23.60
2018-12-25T17:28:32.732Z,21.03
2018-12-25T17:31:01.998Z,23.80
2018-12-25T17:33:31.271Z,21.53
2018-12-25T17:36:00.578Z,29.20
2018-12-25T17:38:29.866Z,31.23
2018-12-25T17:40:59.165Z,30.53
2018-12-25T17:43:28.449Z,26.63
2018-12-25T17:45:57.719Z,26.60
2018-12-25T17:48:27.019Z,22.67
2018-12-25T17:50:56.264Z,25.00
2018-12-25T17:53:25.569Z,30.50
2018-12-25T17:55:54.843Z,26.07
2018-12-25T17:58:24.353Z,34.30
2018-12-25T18:00:53.725Z,32.40
2018-12-25T18:03:23.001Z,26.87
2018-12-25T18:05:52.285Z,26.30
2018-12-25T18:08:21.564Z,26.50
2018-12-25T18:10:50.856Z,29.73
2018-12-25T18:13:20.213Z,21.50
2018-12-25T18:15:49.476Z,22.83
2018-12-25T18:18:18.848Z,21.63
2018-12-25T18:20:48.161Z,27.00
2018-12-25T18:23:17.433Z,22.93
2018-12-25T18:25:46.806Z,20.20
2018-12-25T18:28:16.105Z,18.53
2018-12-25T18:30:45.401Z,23.97
2018-12-25T18:33:14.700Z,17.67
2018-12-25T18:35:43.977Z,22.03
2018-12-25T18:38:13.279Z,22.90
2018-12-25T18:40:42.586Z,23.60
2018-12-25T18:43:11.883Z,22.17
2018-12-25T18:45:41.172Z,29.70
2018-12-25T18:48:10.464Z,22.27
2018-12-25T18:50:39.733Z,21.63
2018-12-25T18:53:09.026Z,25.80
2018-12-25T18:55:40.185Z,32.20
2018-12-25T18:58:09.340Z,32.87
2018-12-25T19:00:38.633Z,26.73
2018-12-25T19:03:07.913Z,28.80
2018-12-25T19:05:37.224Z,32.40
2018-12-25T19:08:06.483Z,28.92
2018-12-25T19:10:35.784Z,34.27
2018-12-25T19:13:05.182Z,31.27
2018-12-25T19:15:35.564Z,39.78
2018-12-25T19:18:06.117Z,31.12
2018-12-25T19:20:35.394Z,37.13
2018-12-25T19:23:04.692Z,32.85
2018-12-25T19:25:33.955Z,31.35
2018-12-25T19:28:03.253Z,32.70
2018-12-25T19:30:34.553Z,31.42
2018-12-25T19:33:03.822Z,32.10
2018-12-25T19:35:33.118Z,30.08
2018-12-25T19:38:02.405Z,29.97
2018-12-25T19:40:31.741Z,28.85
2018-12-25T19:43:01.004Z,27.87
2018-12-25T19:45:31.884Z,34.75
2018-12-25T19:48:01.158Z,29.23
2018-12-25T19:50:30.477Z,29.37
2018-12-25T19:52:59.762Z,32.35
2018-12-25T19:55:29.043Z,29.20
2018-12-25T19:57:58.313Z,34.10
2018-12-25T20:00:27.687Z,29.60
2018-12-25T20:03:09.749Z,32.58
2018-12-25T20:06:18.872Z,34.48
2018-12-25T20:09:23.996Z,31.10
2018-12-25T20:12:40.218Z,28.47
2018-12-25T20:15:44.569Z,28.42
2018-12-25T20:18:41.577Z,23.42
2018-12-25T20:22:02.777Z,28.17
2018-12-25T20:24:59.808Z,26.87
2018-12-25T20:28:00.162Z,31.57
2018-12-25T20:31:06.603Z,26.68
2018-12-25T20:34:23.269Z,28.77
2018-12-25T20:37:28.888Z,36.65
2018-12-25T20:40:55.824Z,29.65
2018-12-25T20:44:24.104Z,29.85
2018-12-25T20:47:30.532Z,29.27
2018-12-25T20:51:02.087Z,31.62
2018-12-25T20:54:12.702Z,29.70
2018-12-25T20:57:26.005Z,32.45
2018-12-25T21:00:50.021Z,31.73
2018-12-25T21:03:56.314Z,27.70
2018-12-25T21:06:54.929Z,26.48
2018-12-25T21:10:14.684Z,27.60
2018-12-25T21:13:34.094Z,25.95
2018-12-25T21:16:55.650Z,31.42
2018-12-25T21:20:20.289Z,37.60
2018-12-25T21:23:25.535Z,37.90
2018-12-25T21:26:50.147Z,30.85
2018-12-25T21:29:19.471Z,28.02
2018-12-25T21:31:48.735Z,35.60
2018-12-25T21:34:18.219Z,34.67
2018-12-25T21:36:50.788Z,32.45
2018-12-25T21:39:20.387Z,35.95
2018-12-25T21:41:49.656Z,35.52
2018-12-25T21:44:19.717Z,40.75
2018-12-25T21:46:49.235Z,34.35
2018-12-25T21:49:18.731Z,30.00
2018-12-25T21:51:48.015Z,30.15
2018-12-25T21:54:17.713Z,33.67
2018-12-25T21:56:47.208Z,31.55
2018-12-25T21:59:17.185Z,28.77
2018-12-25T22:01:46.516Z,29.07
2018-12-25T22:04:15.940Z,42.40
2018-12-25T22:06:45.232Z,33.70
2018-12-25T22:09:14.508Z,26.12
2018-12-25T22:11:45.375Z,27.55
2018-12-25T22:14:14.810Z,34.95
2018-12-25T22:16:44.106Z,30.20
2018-12-25T22:19:13.364Z,33.42
2018-12-25T22:21:42.651Z,38.35
2018-12-25T22:24:11.935Z,32.60
2018-12-25T22:26:41.286Z,34.90
2018-12-25T22:29:10.670Z,36.77
2018-12-25T22:31:39.957Z,30.55
2018-12-25T22:34:09.304Z,29.02
2018-12-25T22:36:38.632Z,30.52
2018-12-25T22:39:07.926Z,30.35
2018-12-25T22:41:37.240Z,30.62
2018-12-25T22:44:06.605Z,28.15
2018-12-25T22:46:35.890Z,35.08
2018-12-25T22:49:07.134Z,31.10
2018-12-25T22:51:36.239Z,32.38
2018-12-25T22:54:05.529Z,28.60
2018-12-25T22:56:34.875Z,32.33
2018-12-25T22:59:06.925Z,35.90
2018-12-25T23:01:36.203Z,31.73
2018-12-25T23:04:05.480Z,46.05
2018-12-25T23:06:34.756Z,34.98
2018-12-25T23:09:05.403Z,29.32
2018-12-25T23:11:34.683Z,32.25
2018-12-25T23:14:04.013Z,33.40
2018-12-25T23:16:33.349Z,29.95
2018-12-25T23:19:02.658Z,34.27
2018-12-25T23:21:32.017Z,31.70
2018-12-25T23:24:01.313Z,29.75
2018-12-25T23:26:30.627Z,37.58
2018-12-25T23:29:00.021Z,36.00
2018-12-25T23:31:29.562Z,35.33
2018-12-25T23:33:59.458Z,37.28
2018-12-25T23:36:30.440Z,33.20
2018-12-25T23:38:59.728Z,35.80
2018-12-25T23:41:29.024Z,36.53
2018-12-25T23:43:59.392Z,35.25
2018-12-25T23:46:28.706Z,38.85
2018-12-25T23:48:57.988Z,30.95
2018-12-25T23:51:27.277Z,40.98
2018-12-25T23:53:56.583Z,31.17
2018-12-25T23:56:25.877Z,41.33
2018-12-25T23:58:55.295Z,38.60
